sensor_id;sensor_type;location;lat;lon;timestamp;P1;durP1;ratioP1;P2;durP2;ratioP2
37451;SDS011;23314;51.114;6.900;2023-03-03T00:00:49;77.97;;;43.20;;
37451;SDS011;23314;51.114;6.900;2023-03-03T00:03:15;74.60;;;41.13;;
37451;SDS011;23314;51.114;6.900;2023-03-03T00:05:42;79.10;;;42.67;;
37451;SDS011;23314;51.114;6.900;2023-03-03T00:08:08;73.83;;;41.40;;
37451;SDS011;23314;51.114;6.900;2023-03-03T00:10:34;74.80;;;42.23;;
37451;SDS011;23314;51.114;6.900;2023-03-03T00:13:00;75.80;;;43.37;;
37451;SDS011;23314;51.114;6.900;2023-03-03T00:15:26;73.83;;;42.23;;
37451;SDS011;23314;51.114;6.900;2023-03-03T00:17:53;80.83;;;45.60;;
37451;SDS011;23314;51.114;6.900;2023-03-03T00:22:50;81.93;;;45.77;;
37451;SDS011;23314;51.114;6.900;2023-03-03T00:28:04;84.20;;;43.83;;
37451;SDS011;23314;51.114;6.900;2023-03-03T00:30:38;83.40;;;45.13;;
37451;SDS011;23314;51.114;6.900;2023-03-03T00:33:06;83.90;;;45.90;;
37451;SDS011;23314;51.114;6.900;2023-03-03T00:35:46;83.07;;;43.33;;
37451;SDS011;23314;51.114;6.900;2023-03-03T00:38:18;83.33;;;44.63;;
37451;SDS011;23314;51.114;6.900;2023-03-03T00:40:44;85.70;;;45.73;;
37451;SDS011;23314;51.114;6.900;2023-03-03T00:43:13;87.53;;;43.57;;
37451;SDS011;23314;51.114;6.900;2023-03-03T00:45:45;87.80;;;45.97;;
37451;SDS011;23314;51.114;6.900;2023-03-03T00:48:17;86.10;;;43.53;;
37451;SDS011;23314;51.114;6.900;2023-03-03T00:50:46;86.37;;;45.10;;
37451;SDS011;23314;51.114;6.900;2023-03-03T00:53:15;83.93;;;43.63;;
37451;SDS011;23314;51.114;6.900;2023-03-03T00:55:41;88.20;;;46.77;;
37451;SDS011;23314;51.114;6.900;2023-03-03T00:58:07;90.70;;;45.83;;
37451;SDS011;23314;51.114;6.900;2023-03-03T01:00:33;87.03;;;45.60;;
37451;SDS011;23314;51.114;6.900;2023-03-03T01:03:00;91.77;;;46.20;;
37451;SDS011;23314;51.114;6.900;2023-03-03T01:05:30;89.53;;;46.67;;
37451;SDS011;23314;51.114;6.900;2023-03-03T01:07:55;89.63;;;45.53;;
37451;SDS011;23314;51.114;6.900;2023-03-03T01:10:21;87.13;;;45.63;;
37451;SDS011;23314;51.114;6.900;2023-03-03T01:12:46;91.67;;;46.23;;
37451;SDS011;23314;51.114;6.900;2023-03-03T01:15:12;95.53;;;46.30;;
37451;SDS011;23314;51.114;6.900;2023-03-03T01:17:39;95.73;;;47.43;;
37451;SDS011;23314;51.114;6.900;2023-03-03T01:20:05;96.30;;;46.23;;
37451;SDS011;23314;51.114;6.900;2023-03-03T01:22:32;93.30;;;46.40;;
37451;SDS011;23314;51.114;6.900;2023-03-03T01:24:57;96.47;;;47.17;;
37451;SDS011;23314;51.114;6.900;2023-03-03T01:27:22;90.77;;;47.43;;
37451;SDS011;23314;51.114;6.900;2023-03-03T01:29:48;99.80;;;47.40;;
37451;SDS011;23314;51.114;6.900;2023-03-03T01:32:13;96.47;;;46.30;;
37451;SDS011;23314;51.114;6.900;2023-03-03T01:34:38;92.83;;;46.00;;
37451;SDS011;23314;51.114;6.900;2023-03-03T01:37:04;94.33;;;46.20;;
37451;SDS011;23314;51.114;6.900;2023-03-03T01:39:29;87.27;;;44.40;;
37451;SDS011;23314;51.114;6.900;2023-03-03T01:41:54;88.90;;;44.77;;
37451;SDS011;23314;51.114;6.900;2023-03-03T01:44:20;93.70;;;44.80;;
37451;SDS011;23314;51.114;6.900;2023-03-03T01:47:04;84.87;;;44.33;;
37451;SDS011;23314;51.114;6.900;2023-03-03T01:49:46;83.43;;;42.97;;
37451;SDS011;23314;51.114;6.900;2023-03-03T01:52:25;84.70;;;43.03;;
37451;SDS011;23314;51.114;6.900;2023-03-03T01:54:58;76.97;;;41.33;;
37451;SDS011;23314;51.114;6.900;2023-03-03T01:57:36;73.40;;;39.50;;
37451;SDS011;23314;51.114;6.900;2023-03-03T02:00:06;77.20;;;41.60;;
37451;SDS011;23314;51.114;6.900;2023-03-03T02:02:34;76.93;;;41.10;;
37451;SDS011;23314;51.114;6.900;2023-03-03T02:05:00;72.67;;;39.60;;
37451;SDS011;23314;51.114;6.900;2023-03-03T02:07:25;74.87;;;41.63;;
37451;SDS011;23314;51.114;6.900;2023-03-03T02:09:58;68.17;;;37.90;;
37451;SDS011;23314;51.114;6.900;2023-03-03T02:12:36;77.67;;;42.07;;
37451;SDS011;23314;51.114;6.900;2023-03-03T02:15:14;74.17;;;38.07;;
37451;SDS011;23314;51.114;6.900;2023-03-03T02:17:41;72.30;;;38.50;;
37451;SDS011;23314;51.114;6.900;2023-03-03T02:20:11;73.23;;;39.20;;
37451;SDS011;23314;51.114;6.900;2023-03-03T02:22:46;70.83;;;38.70;;
37451;SDS011;23314;51.114;6.900;2023-03-03T02:25:14;73.50;;;38.73;;
37451;SDS011;23314;51.114;6.900;2023-03-03T02:27:48;76.17;;;40.90;;
37451;SDS011;23314;51.114;6.900;2023-03-03T02:30:15;71.60;;;39.23;;
37451;SDS011;23314;51.114;6.900;2023-03-03T02:32:44;76.90;;;40.93;;
37451;SDS011;23314;51.114;6.900;2023-03-03T02:38:03;75.57;;;41.27;;
37451;SDS011;23314;51.114;6.900;2023-03-03T02:40:36;73.97;;;37.73;;
37451;SDS011;23314;51.114;6.900;2023-03-03T02:43:06;70.77;;;37.83;;
37451;SDS011;23314;51.114;6.900;2023-03-03T02:45:34;72.77;;;38.67;;
37451;SDS011;23314;51.114;6.900;2023-03-03T02:48:08;78.37;;;38.70;;
37451;SDS011;23314;51.114;6.900;2023-03-03T02:50:34;71.43;;;38.73;;
37451;SDS011;23314;51.114;6.900;2023-03-03T02:52:59;70.37;;;37.13;;
37451;SDS011;23314;51.114;6.900;2023-03-03T02:55:25;72.33;;;38.70;;
37451;SDS011;23314;51.114;6.900;2023-03-03T02:57:50;73.47;;;38.80;;
37451;SDS011;23314;51.114;6.900;2023-03-03T03:00:15;74.67;;;38.87;;
37451;SDS011;23314;51.114;6.900;2023-03-03T03:02:41;73.93;;;37.93;;
37451;SDS011;23314;51.114;6.900;2023-03-03T03:05:06;73.93;;;38.87;;
37451;SDS011;23314;51.114;6.900;2023-03-03T03:07:33;73.90;;;37.50;;
37451;SDS011;23314;51.114;6.900;2023-03-03T03:09:58;73.20;;;38.27;;
37451;SDS011;23314;51.114;6.900;2023-03-03T03:12:23;71.60;;;38.10;;
37451;SDS011;23314;51.114;6.900;2023-03-03T03:14:49;68.80;;;37.07;;
37451;SDS011;23314;51.114;6.900;2023-03-03T03:17:14;65.47;;;35.43;;
37451;SDS011;23314;51.114;6.900;2023-03-03T03:19:40;64.43;;;35.63;;
37451;SDS011;23314;51.114;6.900;2023-03-03T03:22:05;63.47;;;34.80;;
37451;SDS011;23314;51.114;6.900;2023-03-03T03:24:30;64.83;;;35.80;;
37451;SDS011;23314;51.114;6.900;2023-03-03T03:26:56;67.10;;;36.70;;
37451;SDS011;23314;51.114;6.900;2023-03-03T03:29:21;70.97;;;36.33;;
37451;SDS011;23314;51.114;6.900;2023-03-03T03:31:46;72.10;;;37.53;;
37451;SDS011;23314;51.114;6.900;2023-03-03T03:34:11;69.43;;;37.73;;
37451;SDS011;23314;51.114;6.900;2023-03-03T03:36:37;71.43;;;36.17;;
37451;SDS011;23314;51.114;6.900;2023-03-03T03:39:03;72.73;;;39.53;;
37451;SDS011;23314;51.114;6.900;2023-03-03T03:41:30;69.93;;;37.27;;
37451;SDS011;23314;51.114;6.900;2023-03-03T03:43:56;73.30;;;37.20;;
37451;SDS011;23314;51.114;6.900;2023-03-03T03:46:21;71.53;;;38.97;;
37451;SDS011;23314;51.114;6.900;2023-03-03T03:48:46;68.53;;;38.07;;
37451;SDS011;23314;51.114;6.900;2023-03-03T03:51:12;72.00;;;36.73;;
37451;SDS011;23314;51.114;6.900;2023-03-03T03:53:37;78.23;;;37.87;;
37451;SDS011;23314;51.114;6.900;2023-03-03T03:56:02;73.70;;;37.37;;
37451;SDS011;23314;51.114;6.900;2023-03-03T03:58:28;71.87;;;38.60;;
37451;SDS011;23314;51.114;6.900;2023-03-03T04:00:54;73.13;;;36.17;;
37451;SDS011;23314;51.114;6.900;2023-03-03T04:03:19;70.00;;;36.80;;
37451;SDS011;23314;51.114;6.900;2023-03-03T04:05:45;73.50;;;39.20;;
37451;SDS011;23314;51.114;6.900;2023-03-03T04:08:10;70.23;;;35.47;;
37451;SDS011;23314;51.114;6.900;2023-03-03T04:10:36;66.80;;;35.53;;
37451;SDS011;23314;51.114;6.900;2023-03-03T04:13:01;67.70;;;35.20;;
37451;SDS011;23314;51.114;6.900;2023-03-03T04:15:26;69.30;;;36.30;;
37451;SDS011;23314;51.114;6.900;2023-03-03T04:17:52;71.37;;;35.60;;
37451;SDS011;23314;51.114;6.900;2023-03-03T04:20:17;68.57;;;35.93;;
37451;SDS011;23314;51.114;6.900;2023-03-03T04:22:42;67.47;;;35.70;;
37451;SDS011;23314;51.114;6.900;2023-03-03T04:25:09;67.57;;;35.80;;
37451;SDS011;23314;51.114;6.900;2023-03-03T04:27:38;65.80;;;34.53;;
37451;SDS011;23314;51.114;6.900;2023-03-03T04:30:04;61.60;;;33.87;;
37451;SDS011;23314;51.114;6.900;2023-03-03T04:32:30;57.63;;;32.37;;
37451;SDS011;23314;51.114;6.900;2023-03-03T04:34:57;64.23;;;33.17;;
37451;SDS011;23314;51.114;6.900;2023-03-03T04:37:23;63.20;;;33.33;;
37451;SDS011;23314;51.114;6.900;2023-03-03T04:39:48;60.67;;;33.47;;
37451;SDS011;23314;51.114;6.900;2023-03-03T04:42:14;61.47;;;33.13;;
37451;SDS011;23314;51.114;6.900;2023-03-03T04:44:39;67.43;;;33.73;;
37451;SDS011;23314;51.114;6.900;2023-03-03T04:47:05;63.13;;;33.97;;
37451;SDS011;23314;51.114;6.900;2023-03-03T04:49:30;65.90;;;34.23;;
37451;SDS011;23314;51.114;6.900;2023-03-03T04:51:56;62.93;;;34.63;;
37451;SDS011;23314;51.114;6.900;2023-03-03T04:54:21;62.80;;;33.50;;
37451;SDS011;23314;51.114;6.900;2023-03-03T04:56:46;61.57;;;32.57;;
37451;SDS011;23314;51.114;6.900;2023-03-03T04:59:12;62.77;;;31.93;;
37451;SDS011;23314;51.114;6.900;2023-03-03T05:01:37;57.03;;;32.00;;
37451;SDS011;23314;51.114;6.900;2023-03-03T05:04:03;63.27;;;33.13;;
37451;SDS011;23314;51.114;6.900;2023-03-03T05:06:28;60.57;;;34.07;;
37451;SDS011;23314;51.114;6.900;2023-03-03T05:08:54;62.87;;;32.37;;
37451;SDS011;23314;51.114;6.900;2023-03-03T05:11:19;61.87;;;31.77;;
37451;SDS011;23314;51.114;6.900;2023-03-03T05:13:45;59.33;;;30.63;;
37451;SDS011;23314;51.114;6.900;2023-03-03T05:16:10;66.93;;;32.80;;
37451;SDS011;23314;51.114;6.900;2023-03-03T05:18:35;66.77;;;33.00;;
37451;SDS011;23314;51.114;6.900;2023-03-03T05:21:01;63.33;;;32.90;;
37451;SDS011;23314;51.114;6.900;2023-03-03T05:23:26;66.83;;;33.97;;
37451;SDS011;23314;51.114;6.900;2023-03-03T05:25:52;67.67;;;33.83;;
37451;SDS011;23314;51.114;6.900;2023-03-03T05:28:17;64.57;;;32.23;;
37451;SDS011;23314;51.114;6.900;2023-03-03T05:30:43;58.43;;;31.10;;
37451;SDS011;23314;51.114;6.900;2023-03-03T05:33:09;63.93;;;31.10;;
37451;SDS011;23314;51.114;6.900;2023-03-03T05:35:37;69.93;;;35.73;;
37451;SDS011;23314;51.114;6.900;2023-03-03T05:38:02;63.63;;;34.50;;
37451;SDS011;23314;51.114;6.900;2023-03-03T05:40:28;70.70;;;35.53;;
37451;SDS011;23314;51.114;6.900;2023-03-03T05:42:53;63.97;;;33.90;;
37451;SDS011;23314;51.114;6.900;2023-03-03T05:45:18;62.37;;;32.40;;
37451;SDS011;23314;51.114;6.900;2023-03-03T05:47:45;60.07;;;32.03;;
37451;SDS011;23314;51.114;6.900;2023-03-03T05:50:11;56.07;;;30.27;;
37451;SDS011;23314;51.114;6.900;2023-03-03T05:52:37;54.37;;;30.03;;
37451;SDS011;23314;51.114;6.900;2023-03-03T05:55:02;56.57;;;31.60;;
37451;SDS011;23314;51.114;6.900;2023-03-03T05:57:28;59.57;;;30.53;;
37451;SDS011;23314;51.114;6.900;2023-03-03T05:59:53;60.37;;;31.20;;
37451;SDS011;23314;51.114;6.900;2023-03-03T06:02:19;61.17;;;37.33;;
37451;SDS011;23314;51.114;6.900;2023-03-03T06:04:44;62.43;;;33.00;;
37451;SDS011;23314;51.114;6.900;2023-03-03T06:07:09;63.40;;;32.17;;
37451;SDS011;23314;51.114;6.900;2023-03-03T06:09:35;61.47;;;31.83;;
37451;SDS011;23314;51.114;6.900;2023-03-03T06:12:01;60.77;;;29.87;;
37451;SDS011;23314;51.114;6.900;2023-03-03T06:14:26;59.47;;;30.60;;
37451;SDS011;23314;51.114;6.900;2023-03-03T06:16:51;56.57;;;29.87;;
37451;SDS011;23314;51.114;6.900;2023-03-03T06:19:16;58.13;;;30.77;;
37451;SDS011;23314;51.114;6.900;2023-03-03T06:21:42;56.13;;;29.90;;
37451;SDS011;23314;51.114;6.900;2023-03-03T06:24:07;54.57;;;29.93;;
37451;SDS011;23314;51.114;6.900;2023-03-03T06:26:33;55.63;;;29.83;;
37451;SDS011;23314;51.114;6.900;2023-03-03T06:28:58;57.73;;;30.63;;
37451;SDS011;23314;51.114;6.900;2023-03-03T06:31:25;55.53;;;30.73;;
37451;SDS011;23314;51.114;6.900;2023-03-03T06:33:51;58.60;;;31.10;;
37451;SDS011;23314;51.114;6.900;2023-03-03T06:36:17;55.50;;;29.10;;
37451;SDS011;23314;51.114;6.900;2023-03-03T06:38:43;57.93;;;31.03;;
37451;SDS011;23314;51.114;6.900;2023-03-03T06:41:08;58.13;;;36.40;;
37451;SDS011;23314;51.114;6.900;2023-03-03T06:43:34;55.53;;;30.10;;
37451;SDS011;23314;51.114;6.900;2023-03-03T06:46:01;53.65;;;30.33;;
37451;SDS011;23314;51.114;6.900;2023-03-03T06:48:26;56.40;;;29.40;;
37451;SDS011;23314;51.114;6.900;2023-03-03T06:50:52;60.97;;;31.40;;
37451;SDS011;23314;51.114;6.900;2023-03-03T06:53:18;54.27;;;28.80;;
37451;SDS011;23314;51.114;6.900;2023-03-03T06:55:44;55.70;;;30.07;;
37451;SDS011;23314;51.114;6.900;2023-03-03T06:58:11;54.80;;;28.60;;
37451;SDS011;23314;51.114;6.900;2023-03-03T07:00:40;61.90;;;32.50;;
37451;SDS011;23314;51.114;6.900;2023-03-03T07:03:11;67.30;;;31.83;;
37451;SDS011;23314;51.114;6.900;2023-03-03T07:05:40;59.60;;;30.87;;
37451;SDS011;23314;51.114;6.900;2023-03-03T07:08:08;59.00;;;30.37;;
37451;SDS011;23314;51.114;6.900;2023-03-03T07:10:38;59.03;;;30.67;;
37451;SDS011;23314;51.114;6.900;2023-03-03T07:13:23;56.10;;;29.10;;
37451;SDS011;23314;51.114;6.900;2023-03-03T07:15:51;58.00;;;29.50;;
37451;SDS011;23314;51.114;6.900;2023-03-03T07:18:22;54.77;;;29.90;;
37451;SDS011;23314;51.114;6.900;2023-03-03T07:20:49;52.50;;;29.53;;
37451;SDS011;23314;51.114;6.900;2023-03-03T07:23:17;56.10;;;28.67;;
37451;SDS011;23314;51.114;6.900;2023-03-03T07:25:47;51.17;;;27.57;;
37451;SDS011;23314;51.114;6.900;2023-03-03T07:30:40;51.07;;;28.17;;
37451;SDS011;23314;51.114;6.900;2023-03-03T07:33:07;53.27;;;27.57;;
37451;SDS011;23314;51.114;6.900;2023-03-03T07:35:43;56.87;;;29.70;;
37451;SDS011;23314;51.114;6.900;2023-03-03T07:38:29;49.60;;;26.37;;
37451;SDS011;23314;51.114;6.900;2023-03-03T07:41:10;47.93;;;26.70;;
37451;SDS011;23314;51.114;6.900;2023-03-03T07:46:36;51.13;;;27.63;;
37451;SDS011;23314;51.114;6.900;2023-03-03T07:49:19;49.90;;;27.10;;
37451;SDS011;23314;51.114;6.900;2023-03-03T07:51:46;51.90;;;27.20;;
37451;SDS011;23314;51.114;6.900;2023-03-03T07:59:56;52.93;;;27.60;;
37451;SDS011;23314;51.114;6.900;2023-03-03T08:05:41;43.60;;;25.20;;
37451;SDS011;23314;51.114;6.900;2023-03-03T08:10:56;46.40;;;25.57;;
37451;SDS011;23314;51.114;6.900;2023-03-03T08:13:24;48.97;;;26.03;;
37451;SDS011;23314;51.114;6.900;2023-03-03T08:18:34;44.00;;;23.47;;
37451;SDS011;23314;51.114;6.900;2023-03-03T08:21:04;44.23;;;25.03;;
37451;SDS011;23314;51.114;6.900;2023-03-03T08:23:32;46.17;;;25.37;;
37451;SDS011;23314;51.114;6.900;2023-03-03T08:25:57;45.03;;;25.67;;
37451;SDS011;23314;51.114;6.900;2023-03-03T08:28:22;45.90;;;26.23;;
37451;SDS011;23314;51.114;6.900;2023-03-03T08:30:48;47.37;;;26.53;;
37451;SDS011;23314;51.114;6.900;2023-03-03T08:33:14;46.17;;;24.30;;
37451;SDS011;23314;51.114;6.900;2023-03-03T08:35:41;43.30;;;24.73;;
37451;SDS011;23314;51.114;6.900;2023-03-03T08:38:07;44.57;;;25.07;;
37451;SDS011;23314;51.114;6.900;2023-03-03T08:40:33;49.87;;;24.67;;
37451;SDS011;23314;51.114;6.900;2023-03-03T08:42:59;44.03;;;24.83;;
37451;SDS011;23314;51.114;6.900;2023-03-03T08:45:25;40.27;;;23.23;;
37451;SDS011;23314;51.114;6.900;2023-03-03T08:47:50;42.30;;;23.50;;
37451;SDS011;23314;51.114;6.900;2023-03-03T08:50:16;44.30;;;23.53;;
37451;SDS011;23314;51.114;6.900;2023-03-03T08:52:41;40.43;;;23.07;;
37451;SDS011;23314;51.114;6.900;2023-03-03T08:55:07;44.83;;;23.50;;
37451;SDS011;23314;51.114;6.900;2023-03-03T08:57:33;44.57;;;25.17;;
37451;SDS011;23314;51.114;6.900;2023-03-03T08:59:58;44.33;;;25.50;;
37451;SDS011;23314;51.114;6.900;2023-03-03T09:02:23;40.30;;;23.07;;
37451;SDS011;23314;51.114;6.900;2023-03-03T09:04:49;45.70;;;25.37;;
37451;SDS011;23314;51.114;6.900;2023-03-03T09:07:14;42.53;;;23.10;;
37451;SDS011;23314;51.114;6.900;2023-03-03T09:09:39;46.73;;;24.80;;
37451;SDS011;23314;51.114;6.900;2023-03-03T09:12:16;45.03;;;23.57;;
37451;SDS011;23314;51.114;6.900;2023-03-03T09:14:45;48.13;;;24.63;;
37451;SDS011;23314;51.114;6.900;2023-03-03T09:17:18;44.27;;;25.07;;
37451;SDS011;23314;51.114;6.900;2023-03-03T09:19:47;44.87;;;24.10;;
37451;SDS011;23314;51.114;6.900;2023-03-03T09:24:45;45.23;;;22.50;;
37451;SDS011;23314;51.114;6.900;2023-03-03T09:27:21;54.20;;;25.50;;
37451;SDS011;23314;51.114;6.900;2023-03-03T09:29:52;51.07;;;25.20;;
37451;SDS011;23314;51.114;6.900;2023-03-03T09:32:21;51.60;;;26.13;;
37451;SDS011;23314;51.114;6.900;2023-03-03T09:34:54;56.87;;;29.23;;
37451;SDS011;23314;51.114;6.900;2023-03-03T09:37:21;59.20;;;30.73;;
37451;SDS011;23314;51.114;6.900;2023-03-03T09:39:52;59.50;;;30.60;;
37451;SDS011;23314;51.114;6.900;2023-03-03T09:51:01;55.73;;;28.80;;
37451;SDS011;23314;51.114;6.900;2023-03-03T09:53:54;52.43;;;28.13;;
37451;SDS011;23314;51.114;6.900;2023-03-03T09:56:38;55.33;;;28.57;;
37451;SDS011;23314;51.114;6.900;2023-03-03T09:59:21;53.83;;;31.83;;
37451;SDS011;23314;51.114;6.900;2023-03-03T10:19:06;52.47;;;34.30;;
37451;SDS011;23314;51.114;6.900;2023-03-03T10:21:44;51.67;;;30.33;;
37451;SDS011;23314;51.114;6.900;2023-03-03T10:27:25;50.73;;;29.10;;
37451;SDS011;23314;51.114;6.900;2023-03-03T10:32:28;49.30;;;31.83;;
37451;SDS011;23314;51.114;6.900;2023-03-03T10:40:34;49.77;;;29.43;;
37451;SDS011;23314;51.114;6.900;2023-03-03T10:45:49;50.63;;;27.27;;
37451;SDS011;23314;51.114;6.900;2023-03-03T10:51:26;45.30;;;25.80;;
37451;SDS011;23314;51.114;6.900;2023-03-03T10:54:08;44.40;;;26.83;;
37451;SDS011;23314;51.114;6.900;2023-03-03T10:56:48;50.63;;;26.63;;
37451;SDS011;23314;51.114;6.900;2023-03-03T11:02:16;45.20;;;26.83;;
37451;SDS011;23314;51.114;6.900;2023-03-03T11:04:50;47.83;;;26.67;;
37451;SDS011;23314;51.114;6.900;2023-03-03T11:12:47;45.97;;;25.77;;
37451;SDS011;23314;51.114;6.900;2023-03-03T11:21:09;42.67;;;24.57;;
37451;SDS011;23314;51.114;6.900;2023-03-03T11:26:57;49.63;;;26.87;;
37451;SDS011;23314;51.114;6.900;2023-03-03T11:33:08;40.33;;;22.77;;
37451;SDS011;23314;51.114;6.900;2023-03-03T11:35:25;42.43;;;24.83;;
37451;SDS011;23314;51.114;6.900;2023-03-03T11:37:56;42.03;;;25.00;;
37451;SDS011;23314;51.114;6.900;2023-03-03T11:43:31;42.80;;;25.50;;
37451;SDS011;23314;51.114;6.900;2023-03-03T11:46:06;41.87;;;25.47;;
37451;SDS011;23314;51.114;6.900;2023-03-03T11:48:38;42.67;;;26.67;;
37451;SDS011;23314;51.114;6.900;2023-03-03T11:51:30;45.47;;;25.93;;
37451;SDS011;23314;51.114;6.900;2023-03-03T11:54:08;48.27;;;26.13;;
37451;SDS011;23314;51.114;6.900;2023-03-03T11:56:44;41.73;;;25.00;;
37451;SDS011;23314;51.114;6.900;2023-03-03T12:07:43;48.03;;;26.27;;
37451;SDS011;23314;51.114;6.900;2023-03-03T12:10:18;46.60;;;25.67;;
37451;SDS011;23314;51.114;6.900;2023-03-03T12:13:12;42.20;;;25.17;;
37451;SDS011;23314;51.114;6.900;2023-03-03T12:15:52;48.10;;;27.40;;
37451;SDS011;23314;51.114;6.900;2023-03-03T12:27:13;55.53;;;31.23;;
37451;SDS011;23314;51.114;6.900;2023-03-03T12:33:50;54.83;;;29.37;;
37451;SDS011;23314;51.114;6.900;2023-03-03T12:36:33;52.20;;;29.37;;
37451;SDS011;23314;51.114;6.900;2023-03-03T12:39:24;52.53;;;29.27;;
37451;SDS011;23314;51.114;6.900;2023-03-03T12:42:20;55.83;;;30.33;;
37451;SDS011;23314;51.114;6.900;2023-03-03T12:45:21;53.43;;;29.63;;
37451;SDS011;23314;51.114;6.900;2023-03-03T12:47:59;53.27;;;29.23;;
37451;SDS011;23314;51.114;6.900;2023-03-03T12:51:15;53.47;;;29.40;;
37451;SDS011;23314;51.114;6.900;2023-03-03T12:56:07;58.57;;;30.93;;
37451;SDS011;23314;51.114;6.900;2023-03-03T12:59:09;55.87;;;31.17;;
37451;SDS011;23314;51.114;6.900;2023-03-03T13:04:12;57.30;;;31.23;;
37451;SDS011;23314;51.114;6.900;2023-03-03T13:06:45;55.57;;;30.00;;
37451;SDS011;23314;51.114;6.900;2023-03-03T13:18:12;57.93;;;29.20;;
37451;SDS011;23314;51.114;6.900;2023-03-03T13:20:50;55.57;;;28.90;;
37451;SDS011;23314;51.114;6.900;2023-03-03T13:23:43;54.87;;;30.47;;
37451;SDS011;23314;51.114;6.900;2023-03-03T13:31:40;63.27;;;31.70;;
37451;SDS011;23314;51.114;6.900;2023-03-03T13:34:24;61.80;;;31.93;;
37451;SDS011;23314;51.114;6.900;2023-03-03T13:37:06;65.33;;;31.53;;
37451;SDS011;23314;51.114;6.900;2023-03-03T13:40:02;65.77;;;33.23;;
37451;SDS011;23314;51.114;6.900;2023-03-03T13:42:32;63.80;;;31.93;;
37451;SDS011;23314;51.114;6.900;2023-03-03T13:50:25;59.83;;;31.83;;
37451;SDS011;23314;51.114;6.900;2023-03-03T13:55:48;68.70;;;32.00;;
37451;SDS011;23314;51.114;6.900;2023-03-03T14:03:58;68.57;;;32.97;;
37451;SDS011;23314;51.114;6.900;2023-03-03T14:06:29;65.57;;;32.97;;
37451;SDS011;23314;51.114;6.900;2023-03-03T14:11:45;65.97;;;33.10;;
37451;SDS011;23314;51.114;6.900;2023-03-03T14:14:22;57.07;;;30.30;;
37451;SDS011;23314;51.114;6.900;2023-03-03T14:16:56;62.17;;;31.60;;
37451;SDS011;23314;51.114;6.900;2023-03-03T14:22:25;61.83;;;30.17;;
37451;SDS011;23314;51.114;6.900;2023-03-03T14:25:11;62.83;;;30.80;;
37451;SDS011;23314;51.114;6.900;2023-03-03T14:35:40;55.77;;;27.57;;
37451;SDS011;23314;51.114;6.900;2023-03-03T14:40:36;58.53;;;28.20;;
37451;SDS011;23314;51.114;6.900;2023-03-03T14:45:51;62.30;;;29.30;;
37451;SDS011;23314;51.114;6.900;2023-03-03T14:48:21;61.37;;;31.33;;
37451;SDS011;23314;51.114;6.900;2023-03-03T14:50:52;60.87;;;30.20;;
37451;SDS011;23314;51.114;6.900;2023-03-03T14:53:35;58.90;;;28.97;;
37451;SDS011;23314;51.114;6.900;2023-03-03T14:56:55;56.93;;;28.70;;
37451;SDS011;23314;51.114;6.900;2023-03-03T14:59:17;57.90;;;26.63;;
37451;SDS011;23314;51.114;6.900;2023-03-03T15:01:45;52.30;;;25.47;;
37451;SDS011;23314;51.114;6.900;2023-03-03T15:06:43;57.20;;;26.83;;
37451;SDS011;23314;51.114;6.900;2023-03-03T15:12:24;56.93;;;26.77;;
37451;SDS011;23314;51.114;6.900;2023-03-03T15:17:32;53.20;;;24.73;;
37451;SDS011;23314;51.114;6.900;2023-03-03T15:28:54;57.83;;;27.23;;
37451;SDS011;23314;51.114;6.900;2023-03-03T15:34:01;59.77;;;28.53;;
37451;SDS011;23314;51.114;6.900;2023-03-03T15:41:56;52.40;;;23.40;;
37451;SDS011;23314;51.114;6.900;2023-03-03T15:44:31;53.27;;;25.37;;
37451;SDS011;23314;51.114;6.900;2023-03-03T15:49:54;53.00;;;25.67;;
37451;SDS011;23314;51.114;6.900;2023-03-03T16:04:04;53.97;;;24.27;;
37451;SDS011;23314;51.114;6.900;2023-03-03T16:09:23;49.07;;;23.67;;
37451;SDS011;23314;51.114;6.900;2023-03-03T16:15:01;55.03;;;25.67;;
37451;SDS011;23314;51.114;6.900;2023-03-03T16:20:51;53.37;;;25.43;;
37451;SDS011;23314;51.114;6.900;2023-03-03T16:23:29;51.63;;;25.30;;
37451;SDS011;23314;51.114;6.900;2023-03-03T16:28:56;45.83;;;23.43;;
37451;SDS011;23314;51.114;6.900;2023-03-03T16:31:31;49.83;;;24.20;;
37451;SDS011;23314;51.114;6.900;2023-03-03T16:34:06;48.57;;;23.70;;
37451;SDS011;23314;51.114;6.900;2023-03-03T16:42:22;47.67;;;23.93;;
37451;SDS011;23314;51.114;6.900;2023-03-03T16:44:59;47.53;;;24.20;;
37451;SDS011;23314;51.114;6.900;2023-03-03T16:55:47;43.33;;;23.37;;
37451;SDS011;23314;51.114;6.900;2023-03-03T16:58:26;47.10;;;23.60;;
37451;SDS011;23314;51.114;6.900;2023-03-03T17:06:42;46.00;;;23.53;;
37451;SDS011;23314;51.114;6.900;2023-03-03T17:12:21;50.70;;;24.33;;
37451;SDS011;23314;51.114;6.900;2023-03-03T17:15:01;47.93;;;25.47;;
37451;SDS011;23314;51.114;6.900;2023-03-03T17:17:40;48.93;;;24.77;;
37451;SDS011;23314;51.114;6.900;2023-03-03T17:23:26;49.40;;;24.23;;
37451;SDS011;23314;51.114;6.900;2023-03-03T17:37:21;47.53;;;24.43;;
37451;SDS011;23314;51.114;6.900;2023-03-03T17:46:02;49.43;;;26.30;;
37451;SDS011;23314;51.114;6.900;2023-03-03T17:51:21;61.53;;;30.50;;
37451;SDS011;23314;51.114;6.900;2023-03-03T17:59:39;52.63;;;28.20;;
37451;SDS011;23314;51.114;6.900;2023-03-03T18:07:27;57.77;;;29.27;;
37451;SDS011;23314;51.114;6.900;2023-03-03T18:13:09;57.97;;;28.23;;
37451;SDS011;23314;51.114;6.900;2023-03-03T18:18:27;55.07;;;28.33;;
37451;SDS011;23314;51.114;6.900;2023-03-03T18:21:13;60.80;;;28.50;;
37451;SDS011;23314;51.114;6.900;2023-03-03T18:23:43;59.00;;;29.10;;
37451;SDS011;23314;51.114;6.900;2023-03-03T18:29:39;59.57;;;27.23;;
37451;SDS011;23314;51.114;6.900;2023-03-03T18:31:47;60.07;;;30.17;;
37451;SDS011;23314;51.114;6.900;2023-03-03T18:34:29;70.00;;;31.30;;
37451;SDS011;23314;51.114;6.900;2023-03-03T18:42:40;69.57;;;30.80;;
37451;SDS011;23314;51.114;6.900;2023-03-03T18:45:46;65.03;;;29.87;;
37451;SDS011;23314;51.114;6.900;2023-03-03T18:48:07;63.73;;;29.43;;
37451;SDS011;23314;51.114;6.900;2023-03-03T18:50:37;64.23;;;33.27;;
37451;SDS011;23314;51.114;6.900;2023-03-03T18:53:21;69.90;;;31.47;;
37451;SDS011;23314;51.114;6.900;2023-03-03T18:55:48;66.93;;;31.53;;
37451;SDS011;23314;51.114;6.900;2023-03-03T19:00:43;67.30;;;32.57;;
37451;SDS011;23314;51.114;6.900;2023-03-03T19:03:28;70.77;;;32.87;;
37451;SDS011;23314;51.114;6.900;2023-03-03T19:05:57;68.20;;;33.23;;
37451;SDS011;23314;51.114;6.900;2023-03-03T19:08:41;64.33;;;34.70;;
37451;SDS011;23314;51.114;6.900;2023-03-03T19:14:13;71.50;;;36.47;;
37451;SDS011;23314;51.114;6.900;2023-03-03T19:16:45;73.30;;;36.60;;
37451;SDS011;23314;51.114;6.900;2023-03-03T19:21:38;66.70;;;33.37;;
37451;SDS011;23314;51.114;6.900;2023-03-03T19:24:23;65.60;;;31.97;;
37451;SDS011;23314;51.114;6.900;2023-03-03T19:27:34;63.27;;;30.07;;
37451;SDS011;23314;51.114;6.900;2023-03-03T19:35:41;57.90;;;28.00;;
37451;SDS011;23314;51.114;6.900;2023-03-03T19:38:24;62.40;;;29.30;;
37451;SDS011;23314;51.114;6.900;2023-03-03T19:43:46;57.67;;;29.33;;
37451;SDS011;23314;51.114;6.900;2023-03-03T19:58:15;66.53;;;32.03;;
37451;SDS011;23314;51.114;6.900;2023-03-03T20:04:11;74.17;;;36.17;;
37451;SDS011;23314;51.114;6.900;2023-03-03T20:09:46;82.57;;;44.20;;